Time;durP1;ratioP1;P1;durP2;ratioP2;P2;SDS_P1;SDS_P2;PMS_P1;PMS_P2;Temp;Humidity;BMP_temperature;BMP_pressure;BME280_temperature;BME280_humidity;BME280_pressure;Samples;Min_cycle;Max_cycle;Signal;HPM_P1;HPM_P2
2022/07/21 00:01:08;;;;;;;15.23;14.02;;;;;;;21.19;85.03;98811.88;4122554;28;20281;-53
2022/07/21 00:03:10;;;;;;;15.70;14.35;;;;;;;21.09;85.84;98817.66;4121670;28;20199;-53
2022/07/21 00:05:12;;;;;;;17.60;16.38;;;;;;;21.15;85.16;98816.41;4126052;28;20213;-53
2022/07/21 00:07:13;;;;;;;15.73;14.75;;;;;;;21.08;85.55;98810.44;4105630;28;20214;-53
2022/07/21 00:09:15;;;;;;;14.70;13.75;;;;;;;21.18;84.72;98818.59;4119161;28;20198;-53
2022/07/21 00:11:17;;;;;;;15.15;14.15;;;;;;;21.15;84.98;98813.63;4121697;28;20233;-52
2022/07/21 00:13:19;;;;;;;14.50;13.35;;;;;;;21.24;84.57;98820.94;4121560;28;20201;-54
2022/07/21 00:15:23;;;;;;;14.02;13.13;;;;;;;21.18;84.57;98821.38;4123321;28;20210;-53
2022/07/21 00:17:25;;;;;;;16.38;15.05;;;;;;;21.13;84.85;98818.69;4118386;28;21228;-52
2022/07/21 00:19:30;;;;;;;13.68;12.60;;;;;;;21.18;84.45;98826.94;4126403;28;20292;-53
2022/07/21 00:21:32;;;;;;;15.48;14.38;;;;;;;21.10;84.85;98834.06;4121481;28;20213;-53
2022/07/21 00:23:34;;;;;;;14.30;13.35;;;;;;;20.96;85.86;98840.75;4123031;28;20206;-53
2022/07/21 00:25:36;;;;;;;15.05;13.77;;;;;;;21.10;85.03;98842.41;4120871;28;20214;-54
2022/07/21 00:27:38;;;;;;;14.20;13.05;;;;;;;21.19;84.88;98836.94;4126714;28;20214;-53
2022/07/21 00:29:39;;;;;;;14.98;13.68;;;;;;;21.15;85.31;98844.25;4124058;28;20205;-53
2022/07/21 00:31:41;;;;;;;13.65;12.77;;;;;;;21.16;84.88;98837.53;4121198;28;20202;-54
2022/07/21 00:33:43;;;;;;;15.35;14.30;;;;;;;21.09;85.70;98840.75;4126951;28;20201;-53
2022/07/21 00:35:45;;;;;;;16.38;14.77;;;;;;;21.11;85.89;98832.91;4109032;28;20297;-53
2022/07/21 00:37:46;;;;;;;15.80;14.70;;;;;;;21.20;84.88;98835.81;4125525;28;20261;-53
2022/07/21 00:39:48;;;;;;;15.52;14.48;;;;;;;21.22;84.79;98850.22;4119374;28;20226;-54
2022/07/21 00:41:50;;;;;;;15.40;14.30;;;;;;;21.26;84.46;98842.91;4117113;28;20209;-54
2022/07/21 00:43:52;;;;;;;15.10;13.88;;;;;;;21.27;84.38;98847.34;4126552;28;20240;-53
2022/07/21 00:45:54;;;;;;;15.80;14.80;;;;;;;21.30;84.10;98846.75;4122834;28;20213;-53
2022/07/21 00:47:56;;;;;;;16.38;15.20;;;;;;;21.24;84.73;98847.97;4130663;28;20233;-54
2022/07/21 00:50:00;;;;;;;15.43;14.20;;;;;;;21.20;84.24;98855.28;4121098;28;20264;-53
2022/07/21 00:52:01;;;;;;;15.23;14.07;;;;;;;21.23;83.95;98857.47;4107360;28;20233;-54
2022/07/21 00:54:03;;;;;;;15.60;14.32;;;;;;;21.22;84.19;98858.56;4120727;28;20281;-53
2022/07/21 00:56:06;;;;;;;14.52;13.57;;;;;;;21.11;84.83;98859.94;4106655;28;20265;-53
2022/07/21 00:58:07;;;;;;;16.20;15.18;;;;;;;20.83;86.32;98853.50;4122572;28;20213;-53
2022/07/21 01:00:13;;;;;;;14.38;13.48;;;;;;;20.86;86.27;98868.75;4121907;28;20641;-53
2022/07/21 01:02:15;;;;;;;13.57;12.48;;;;;;;21.08;84.84;98866.13;4118485;28;20206;-53
2022/07/21 01:04:16;;;;;;;16.25;14.55;;;;;;;20.88;85.86;98875.69;4121690;28;20210;-52
2022/07/21 01:06:18;;;;;;;14.90;13.80;;;;;;;20.80;86.47;98864.44;4125649;28;20206;-53
2022/07/21 01:08:20;;;;;;;13.80;12.40;;;;;;;20.84;86.13;98865.47;4120611;28;20209;-53
2022/07/21 01:10:24;;;;;;;13.95;12.85;;;;;;;21.02;85.00;98872.91;4119583;28;20225;-53
2022/07/21 01:12:26;;;;;;;16.20;15.07;;;;;;;20.88;85.33;98866.53;4120787;28;20260;-54
2022/07/21 01:14:28;;;;;;;15.18;14.10;;;;;;;20.83;86.26;98880.50;4118394;28;20210;-54
2022/07/21 01:16:30;;;;;;;14.85;13.85;;;;;;;20.83;85.94;98880.50;4133676;28;20206;-52
2022/07/21 01:18:32;;;;;;;15.93;14.68;;;;;;;20.87;85.92;98887.09;4107498;28;20245;-54
2022/07/21 01:20:37;;;;;;;18.05;16.25;;;;;;;20.81;86.27;98889.16;4108938;28;20230;-53
2022/07/21 01:22:41;;;;;;;16.90;15.77;;;;;;;20.67;87.34;98887.47;4126099;28;20329;-52
2022/07/21 01:24:43;;;;;;;18.98;17.38;;;;;;;20.70;87.39;98892.44;4122215;28;20258;-54
2022/07/21 01:26:47;;;;;;;20.20;18.80;;;;;;;20.76;86.80;98897.59;4120017;28;20689;-52
2022/07/21 01:28:49;;;;;;;19.80;18.48;;;;;;;20.78;86.59;98894.53;4136920;28;20272;-52
2022/07/21 01:30:51;;;;;;;18.85;17.13;;;;;;;20.85;86.41;98903.28;4136631;28;20257;-54
2022/07/21 01:32:53;;;;;;;22.73;20.80;;;;;;;20.61;87.88;98897.06;4135987;28;20741;-54
2022/07/21 01:34:55;;;;;;;19.00;17.58;;;;;;;20.71;87.20;98899.66;4123371;28;20210;-54
2022/07/21 01:36:56;;;;;;;21.85;20.33;;;;;;;20.56;87.90;98905.47;4102047;28;20207;-55
2022/07/21 01:41:34;;;;;;;19.80;18.45;;;;;;;20.65;87.12;98912.00;4129525;28;20234;-52
2022/07/21 01:43:36;;;;;;;22.95;21.13;;;;;;;20.64;87.42;98910.38;4118557;28;20240;-52
2022/07/21 01:45:40;;;;;;;21.05;19.15;;;;;;;20.54;87.76;98913.31;4133442;28;20216;-53
2022/07/21 01:47:42;;;;;;;21.42;19.55;;;;;;;20.49;88.30;98916.16;4125780;28;20205;-54
2022/07/21 01:49:44;;;;;;;21.58;19.42;;;;;;;20.44;88.19;98922.66;4124330;28;20233;-56
2022/07/21 01:51:47;;;;;;;21.38;19.77;;;;;;;20.41;88.49;98922.44;4106575;28;20210;-52
2022/07/21 01:53:48;;;;;;;21.98;20.35;;;;;;;20.41;88.62;98925.22;4127764;28;20213;-53
2022/07/21 01:55:50;;;;;;;20.55;19.10;;;;;;;20.52;88.05;98924.72;4110200;28;20730;-53
2022/07/21 01:57:52;;;;;;;22.33;20.63;;;;;;;20.51;87.79;98920.31;4134720;28;20240;-54
2022/07/21 01:59:54;;;;;;;20.60;18.80;;;;;;;20.67;86.93;98932.00;4135178;28;20236;-53
2022/07/21 02:01:55;;;;;;;19.25;17.90;;;;;;;20.72;86.77;98927.16;4135984;28;20228;-52
2022/07/21 02:03:59;;;;;;;21.50;20.08;;;;;;;20.75;86.30;98934.91;4121023;28;20210;-53
2022/07/21 02:06:05;;;;;;;18.73;17.17;;;;;;;20.79;85.70;98924.00;4121467;28;21806;-54
2022/07/21 02:08:07;;;;;;;16.90;15.70;;;;;;;20.88;85.35;98930.53;4119797;28;20270;-54
2022/07/21 02:10:09;;;;;;;20.92;19.35;;;;;;;20.71;85.72;98927.47;4130743;28;20222;-55
2022/07/21 02:12:11;;;;;;;20.13;18.80;;;;;;;20.67;85.92;98920.88;4116035;28;20222;-53
2022/07/21 02:14:12;;;;;;;19.70;18.38;;;;;;;20.64;85.68;98927.84;4122293;28;20210;-52
2022/07/21 02:16:14;;;;;;;18.50;17.30;;;;;;;20.69;85.41;98924.16;4122275;28;20198;-53
2022/07/21 02:18:16;;;;;;;17.63;16.52;;;;;;;20.78;84.87;98927.91;4111421;28;20211;-52
2022/07/21 02:20:18;;;;;;;21.27;18.98;;;;;;;20.67;85.46;98920.88;4128055;28;20333;-54
2022/07/21 02:22:19;;;;;;;18.60;17.35;;;;;;;20.68;84.86;98928.06;4119870;28;20210;-53
2022/07/21 02:24:21;;;;;;;19.65;18.13;;;;;;;20.63;85.04;98917.88;4118629;28;20207;-55
2022/07/21 02:26:23;;;;;;;18.25;16.92;;;;;;;20.57;85.51;98921.06;4136627;28;20218;-54
2022/07/21 02:28:25;;;;;;;16.92;15.73;;;;;;;20.43;85.83;98917.38;4128335;28;20578;-52
2022/07/21 02:30:27;;;;;;;18.98;17.48;;;;;;;20.44;85.94;98916.28;4121701;28;20226;-53
2022/07/21 02:32:28;;;;;;;17.35;16.15;;;;;;;20.56;85.00;98919.38;4116049;28;20254;-53
2022/07/21 02:34:30;;;;;;;18.08;16.83;;;;;;;20.36;85.37;98919.72;4101741;28;20214;-53
2022/07/21 02:36:33;;;;;;;17.02;15.90;;;;;;;20.41;85.35;98919.66;4134853;28;20240;-54
2022/07/21 02:38:34;;;;;;;16.70;15.32;;;;;;;20.41;85.23;98919.66;4120473;28;20804;-53
2022/07/21 02:40:37;;;;;;;16.25;15.10;;;;;;;20.40;85.34;98916.06;4119028;28;20282;-53
2022/07/21 02:42:39;;;;;;;18.23;16.67;;;;;;;20.36;85.46;98919.72;4126474;28;20221;-53
2022/07/21 02:44:40;;;;;;;17.25;15.82;;;;;;;20.29;85.44;98908.16;4130534;28;20253;-53
2022/07/21 02:46:42;;;;;;;15.57;14.38;;;;;;;20.22;85.79;98924.41;4118876;28;20206;-55
2022/07/21 02:48:44;;;;;;;15.60;14.32;;;;;;;20.19;85.64;98922.25;4121368;28;20211;-53
2022/07/21 02:50:45;;;;;;;15.50;14.50;;;;;;;20.16;85.55;98914.50;4118087;28;20257;-53
2022/07/21 02:52:47;;;;;;;14.88;13.57;;;;;;;20.19;85.44;98922.25;4135594;28;20760;-54
2022/07/21 02:54:49;;;;;;;14.23;13.25;;;;;;;20.25;84.71;98923.81;4124155;28;20205;-55
2022/07/21 02:56:51;;;;;;;15.38;14.07;;;;;;;20.29;84.55;98913.72;4134595;28;20210;-53
2022/07/21 02:58:52;;;;;;;12.95;11.98;;;;;;;20.33;83.99;98912.00;4122232;28;21330;-52
2022/07/21 03:01:00;;;;;;;14.43;13.32;;;;;;;20.40;83.72;98915.22;4122185;28;20268;-54
2022/07/21 03:03:03;;;;;;;14.15;13.25;;;;;;;20.26;83.99;98912.38;4117153;28;20243;-52
2022/07/21 03:05:05;;;;;;;13.90;12.95;;;;;;;20.22;83.74;98910.50;4119785;28;20205;-54
2022/07/21 03:07:07;;;;;;;13.93;12.93;;;;;;;20.25;83.74;98912.72;4124038;28;20222;-54
2022/07/21 03:09:09;;;;;;;13.30;12.30;;;;;;;20.33;83.27;98917.56;4121151;28;20237;-53
2022/07/21 03:11:11;;;;;;;13.50;12.50;;;;;;;20.41;83.18;98923.28;4137893;28;20234;-53
2022/07/21 03:13:13;;;;;;;13.20;12.30;;;;;;;20.35;83.05;98918.06;4121592;28;20198;-53
2022/07/21 03:15:15;;;;;;;12.98;11.93;;;;;;;20.30;82.94;98920.97;4129646;28;20965;-52
2022/07/21 03:17:16;;;;;;;15.95;12.50;;;;;;;20.32;83.02;98927.03;4134735;28;20685;-54
2022/07/21 03:19:18;;;;;;;13.52;12.50;;;;;;;20.07;84.34;98921.88;4121516;28;20210;-54
2022/07/21 03:21:19;;;;;;;14.40;13.30;;;;;;;20.01;84.20;98921.09;4131549;28;20228;-52
2022/07/21 03:23:21;;;;;;;15.88;14.77;;;;;;;19.75;85.88;98930.09;4122576;28;20217;-53
2022/07/21 03:25:23;;;;;;;16.13;14.95;;;;;;;19.84;85.10;98928.31;4119278;28;20209;-53
2022/07/21 03:27:25;;;;;;;16.25;14.27;;;;;;;19.78;85.58;98919.22;4136555;28;20244;-54
2022/07/21 03:29:27;;;;;;;16.98;15.52;;;;;;;19.77;85.32;98933.41;4135006;28;20296;-54
2022/07/21 03:31:28;;;;;;;16.45;15.35;;;;;;;19.57;86.42;98926.19;4130028;28;20571;-55
2022/07/21 03:33:30;;;;;;;15.25;14.25;;;;;;;19.55;86.12;98924.81;4137724;28;20268;-54
2022/07/21 03:35:32;;;;;;;16.10;14.80;;;;;;;19.50;87.01;98933.22;4120000;28;20694;-56
2022/07/21 03:37:43;;;;;;;15.13;14.00;;;;;;;19.79;85.53;98942.28;4122607;28;20238;-53
2022/07/21 03:39:45;;;;;;;16.27;15.07;;;;;;;19.68;85.50;98944.38;4126873;28;20304;-54
2022/07/21 03:41:46;;;;;;;17.05;15.88;;;;;;;19.52;85.96;98947.63;4133354;28;20232;-55
2022/07/21 03:43:48;;;;;;;15.52;14.48;;;;;;;19.50;85.74;98936.81;4123072;28;20234;-53
2022/07/21 03:45:50;;;;;;;17.02;15.70;;;;;;;19.52;85.76;98942.91;4133975;28;20213;-54
2022/07/21 03:47:52;;;;;;;16.17;15.15;;;;;;;19.50;85.93;98941.53;4117954;28;20337;-53
2022/07/21 03:49:53;;;;;;;15.13;14.15;;;;;;;19.45;85.96;98938.84;4118065;28;20916;-54
2022/07/21 03:51:55;;;;;;;16.63;15.45;;;;;;;19.34;86.81;98934.53;4119686;28;20268;-55
2022/07/21 03:53:59;;;;;;;15.60;14.50;;;;;;;19.31;86.86;98932.38;4120209;28;20279;-54
2022/07/21 03:56:00;;;;;;;16.15;14.85;;;;;;;19.19;87.43;98931.91;4124734;28;20209;-54
2022/07/21 03:58:05;;;;;;;15.45;14.25;;;;;;;19.21;87.06;98924.16;4126182;28;20209;-54
2022/07/21 04:00:11;;;;;;;15.55;14.43;;;;;;;19.12;87.70;98937.00;4126271;28;20226;-54
2022/07/21 04:02:13;;;;;;;14.30;13.32;;;;;;;19.08;88.21;98922.06;4120352;28;20210;-54
2022/07/21 04:04:14;;;;;;;15.55;14.55;;;;;;;19.11;87.22;98921.47;4116505;28;20214;-52
2022/07/21 04:06:16;;;;;;;14.00;12.95;;;;;;;19.12;87.51;98925.91;4121291;28;20241;-53
2022/07/21 04:08:17;;;;;;;13.82;12.93;;;;;;;19.32;86.60;98925.69;4136694;28;20213;-53
2022/07/21 04:10:24;;;;;;;14.70;13.60;;;;;;;19.34;85.94;98928.97;4121436;28;20644;-53
2022/07/21 04:12:27;;;;;;;14.48;13.32;;;;;;;19.35;85.92;98930.63;4123972;28;20205;-54
2022/07/21 04:14:28;;;;;;;14.98;13.88;;;;;;;19.35;85.64;98937.03;4118799;28;20241;-53
2022/07/21 04:16:30;;;;;;;12.98;12.15;;;;;;;19.42;85.39;98936.66;4118160;28;20241;-55
2022/07/21 04:18:32;;;;;;;12.38;11.60;;;;;;;19.50;84.73;98933.22;4117355;28;20217;-55
2022/07/21 04:20:34;;;;;;;12.45;11.65;;;;;;;19.60;84.37;98936.72;4133138;28;20224;-54
2022/07/21 04:22:36;;;;;;;12.95;11.95;;;;;;;19.62;83.87;98939.16;4118419;28;20217;-54
2022/07/21 04:24:38;;;;;;;14.05;11.35;;;;;;;19.53;84.16;98943.75;4130481;28;20229;-55
2022/07/21 04:26:40;;;;;;;13.13;12.02;;;;;;;19.51;84.00;98946.00;4119358;28;20641;-53
2022/07/21 04:28:41;;;;;;;11.32;10.52;;;;;;;19.54;83.67;98951.78;4132480;28;20198;-53
2022/07/21 04:30:43;;;;;;;11.40;10.40;;;;;;;19.62;83.68;98953.88;4119869;28;20221;-52
2022/07/21 04:32:45;;;;;;;10.98;10.18;;;;;;;19.65;83.40;98952.47;4119068;28;20206;-53
2022/07/21 04:34:47;;;;;;;10.50;9.80;;;;;;;19.69;83.07;98953.50;4123168;28;20282;-54
2022/07/21 04:36:48;;;;;;;11.60;10.50;;;;;;;19.74;82.83;98959.84;4119657;28;20291;-55
2022/07/21 04:38:50;;;;;;;9.82;9.13;;;;;;;19.77;82.75;98966.75;4116591;28;20250;-53
2022/07/21 04:40:52;;;;;;;10.70;9.90;;;;;;;19.84;82.51;98956.09;4117027;28;20253;-54
2022/07/21 04:42:54;;;;;;;12.07;10.95;;;;;;;19.88;82.48;98962.69;4129194;28;20213;-54
2022/07/21 04:44:56;;;;;;;11.25;10.20;;;;;;;19.93;82.29;98965.41;4131054;28;20213;-54
2022/07/21 04:46:59;;;;;;;13.45;12.65;;;;;;;19.80;83.10;98966.16;4130706;28;20225;-54
2022/07/21 04:49:01;;;;;;;11.50;10.77;;;;;;;19.87;82.69;98969.38;4115495;28;20203;-56
2022/07/21 04:51:02;;;;;;;11.30;10.57;;;;;;;19.99;82.52;98967.00;4115527;28;20222;-54
2022/07/21 04:53:04;;;;;;;12.73;11.82;;;;;;;19.81;83.06;98965.00;4130862;28;20214;-53
2022/07/21 04:55:06;;;;;;;12.00;10.93;;;;;;;19.86;83.26;98970.50;4112052;28;20278;-53
2022/07/21 04:57:08;;;;;;;10.27;9.55;;;;;;;19.98;82.88;98976.47;4135086;28;20257;-53
2022/07/21 04:59:10;;;;;;;14.15;13.15;;;;;;;19.93;83.11;98970.97;4117374;28;20214;-55
2022/07/21 05:01:18;;;;;;;12.05;11.05;;;;;;;20.02;82.81;98970.00;4106334;28;20275;-54
2022/07/21 05:03:19;;;;;;;11.60;10.50;;;;;;;20.01;82.63;98968.34;4122542;28;20290;-53
2022/07/21 05:05:21;;;;;;;12.77;11.55;;;;;;;19.99;82.76;98975.31;4120383;28;20264;-55
2022/07/21 05:07:23;;;;;;;13.88;12.82;;;;;;;20.01;83.20;98973.91;4126560;28;20205;-54
2022/07/21 05:09:25;;;;;;;11.52;10.63;;;;;;;19.99;83.00;98973.34;4123800;28;20273;-53
2022/07/21 05:11:26;;;;;;;13.48;12.45;;;;;;;19.85;84.12;98968.84;4120124;28;20246;-55
2022/07/21 05:13:28;;;;;;;14.20;12.18;;;;;;;19.85;83.73;98966.91;4123939;28;20244;-54
2022/07/21 05:15:30;;;;;;;14.60;12.95;;;;;;;19.93;83.99;98970.97;4136108;28;21273;-53
2022/07/21 05:17:32;;;;;;;13.25;11.70;;;;;;;19.97;83.62;98966.47;4136146;28;20209;-53
2022/07/21 05:19:34;;;;;;;11.50;10.43;;;;;;;20.00;83.12;98960.31;4119397;28;20264;-56
2022/07/21 05:21:36;;;;;;;11.93;11.05;;;;;;;20.17;82.84;98950.34;4121832;28;20234;-55
2022/07/21 05:23:37;;;;;;;13.95;12.55;;;;;;;19.98;84.07;98945.91;4124952;28;20688;-54
2022/07/21 05:25:39;;;;;;;12.00;10.52;;;;;;;20.02;83.39;98946.94;4119539;28;20210;-53
2022/07/21 05:27:41;;;;;;;12.43;11.63;;;;;;;19.93;84.18;98955.13;4127212;28;20221;-53
2022/07/21 05:29:43;;;;;;;12.32;11.52;;;;;;;20.03;83.53;98943.00;4128784;28;20209;-53
2022/07/21 05:31:45;;;;;;;11.27;10.43;;;;;;;20.09;83.35;98953.81;4119677;28;20606;-54
2022/07/21 05:33:47;;;;;;;11.15;10.35;;;;;;;20.12;83.13;98952.38;4129832;28;20201;-53
2022/07/21 05:35:48;;;;;;;12.73;11.82;;;;;;;19.98;84.08;98957.81;4126646;28;20206;-56
2022/07/21 05:37:50;;;;;;;11.52;10.63;;;;;;;19.99;84.40;98950.31;4137235;28;20760;-54
2022/07/21 05:39:52;;;;;;;11.73;10.82;;;;;;;20.17;83.32;98960.66;4121187;28;20235;-55
2022/07/21 05:41:54;;;;;;;10.73;10.07;;;;;;;20.27;83.87;98960.47;4121374;28;20209;-55
2022/07/21 05:43:55;;;;;;;11.27;10.20;;;;;;;20.43;82.99;98959.94;4132071;28;20220;-54
2022/07/21 05:45:58;;;;;;;10.77;9.60;;;;;;;20.49;82.61;98961.50;4138961;28;20623;-56
2022/07/21 05:48:00;;;;;;;11.18;10.18;;;;;;;20.59;83.02;98957.72;4131253;28;20214;-54
2022/07/21 05:50:02;;;;;;;13.90;12.48;;;;;;;20.70;82.25;98946.13;4118465;28;20238;-54
2022/07/21 05:52:05;;;;;;;12.00;11.10;;;;;;;20.75;81.71;98945.19;4123190;28;20205;-54
2022/07/21 05:54:07;;;;;;;10.85;10.15;;;;;;;20.82;81.75;98951.19;4107734;28;21036;-56
2022/07/21 05:56:10;;;;;;;11.30;10.55;;;;;;;20.92;81.67;98959.41;4126233;28;20269;-54
2022/07/21 05:58:12;;;;;;;12.40;11.52;;;;;;;20.67;82.31;98966.22;4120539;28;20305;-54
2022/07/21 06:00:15;;;;;;;14.20;13.02;;;;;;;20.92;81.65;98967.75;4122653;28;20230;-54
2022/07/21 06:02:17;;;;;;;11.88;10.77;;;;;;;21.04;80.50;98968.09;4137452;28;20673;-52
2022/07/21 06:04:19;;;;;;;11.73;10.93;;;;;;;21.01;80.37;98971.47;4113175;28;20214;-52
2022/07/21 06:06:23;;;;;;;11.43;10.52;;;;;;;21.13;80.68;98980.16;4129205;28;20227;-53
2022/07/21 06:08:24;;;;;;;11.82;10.93;;;;;;;21.20;80.37;98981.41;4119211;28;20213;-53
2022/07/21 06:10:26;;;;;;;10.55;9.73;;;;;;;21.42;80.37;98984.31;4136462;28;20957;-56
2022/07/21 06:12:30;;;;;;;10.68;9.88;;;;;;;21.66;79.55;98984.09;4121804;28;20210;-54
2022/07/21 06:14:32;;;;;;;10.32;9.52;;;;;;;21.77;78.25;99002.31;4121643;28;20260;-53
2022/07/21 06:16:34;;;;;;;10.90;10.10;;;;;;;21.70;78.52;98990.75;4102161;28;20211;-56
2022/07/21 06:18:36;;;;;;;11.82;9.23;;;;;;;21.74;77.85;98991.75;4120678;28;20216;-53
2022/07/21 06:20:39;;;;;;;10.55;9.57;;;;;;;21.80;77.11;98996.94;4120137;28;20288;-55
2022/07/21 06:22:41;;;;;;;9.63;8.55;;;;;;;21.99;77.64;99005.16;4126216;28;20206;-56
2022/07/21 06:24:43;;;;;;;10.38;9.57;;;;;;;21.72;77.22;99010.75;4124921;28;20232;-54
2022/07/21 06:26:44;;;;;;;9.30;8.60;;;;;;;21.51;77.14;99009.50;4116252;28;20638;-54
2022/07/21 06:28:49;;;;;;;9.88;9.10;;;;;;;21.57;77.29;99003.50;4108185;28;20266;-55
2022/07/21 06:30:51;;;;;;;10.02;9.13;;;;;;;21.61;78.08;99003.69;4133645;28;20232;-55
2022/07/21 06:32:53;;;;;;;8.63;8.02;;;;;;;21.69;78.25;99011.34;4119571;28;20825;-55
2022/07/21 06:34:54;;;;;;;9.73;8.95;;;;;;;21.51;77.58;99015.06;4122741;28;20277;-55
2022/07/21 06:36:56;;;;;;;12.13;8.52;;;;;;;21.25;77.74;99008.31;4128653;28;20235;-55
2022/07/21 06:38:58;;;;;;;8.77;7.95;;;;;;;21.12;78.35;99006.34;4122127;28;20213;-56
2022/07/21 06:41:02;;;;;;;8.80;8.00;;;;;;;21.03;79.57;99002.59;4140208;28;20587;-54
2022/07/21 06:43:04;;;;;;;10.18;9.10;;;;;;;21.16;79.63;99007.34;4122505;28;20201;-54
2022/07/21 06:45:26;;;;;;;8.02;7.43;;;;;;;21.20;79.05;99011.19;4124346;28;20675;-54
2022/07/21 06:47:28;;;;;;;9.00;8.20;;;;;;;21.29;79.06;99012.97;4124901;28;20205;-54
2022/07/21 06:49:31;;;;;;;8.20;7.55;;;;;;;21.23;79.39;99008.63;4124412;28;20609;-55
2022/07/21 06:51:33;;;;;;;9.00;8.30;;;;;;;21.34;79.36;99009.25;4121146;28;20631;-53
2022/07/21 06:53:35;;;;;;;9.13;8.43;;;;;;;21.46;79.14;99006.78;4140248;28;20196;-54
2022/07/21 06:55:37;;;;;;;8.82;7.63;;;;;;;21.39;79.04;99012.75;4123116;28;20342;-53
2022/07/21 06:57:38;;;;;;;10.07;8.50;;;;;;;21.29;78.53;99017.69;4137554;28;20296;-53
2022/07/21 06:59:40;;;;;;;8.30;7.70;;;;;;;21.32;78.75;99022.66;4136871;28;20660;-54
2022/07/21 07:01:42;;;;;;;11.68;8.88;;;;;;;21.27;79.25;99025.53;4120798;28;20276;-53
2022/07/21 07:03:45;;;;;;;9.93;8.60;;;;;;;21.24;79.40;99028.94;4107316;28;20259;-53
2022/07/21 07:05:49;;;;;;;9.13;8.40;;;;;;;21.27;79.47;99028.31;4121616;28;20205;-53
2022/07/21 07:07:50;;;;;;;8.40;7.65;;;;;;;21.30;79.07;99030.50;4136860;28;20213;-55
2022/07/21 07:09:54;;;;;;;9.55;8.73;;;;;;;21.00;79.20;99022.69;4139939;28;20275;-55
2022/07/21 07:12:03;;;;;;;9.63;8.82;;;;;;;21.10;79.13;99025.31;4126298;28;20215;-53
2022/07/21 07:14:25;;;;;;;9.68;8.98;;;;;;;21.18;79.25;99021.81;4132198;28;20205;-53
2022/07/21 07:16:27;;;;;;;10.00;9.23;;;;;;;21.58;79.64;99023.84;4129961;28;20209;-53
2022/07/21 07:18:29;;;;;;;8.98;8.27;;;;;;;21.75;78.41;99024.91;4113176;28;20213;-54
2022/07/21 07:20:31;;;;;;;10.38;9.57;;;;;;;21.78;77.70;99026.25;4128781;28;20805;-53
2022/07/21 07:22:33;;;;;;;10.80;8.35;;;;;;;21.97;77.59;99018.59;4122006;28;20260;-53
2022/07/21 07:24:35;;;;;;;8.63;7.90;;;;;;;21.70;76.20;99019.41;4108896;28;20206;-53
2022/07/21 07:26:36;;;;;;;8.07;7.57;;;;;;;21.59;77.69;99017.94;4139263;28;20210;-53
2022/07/21 07:28:38;;;;;;;9.23;8.52;;;;;;;21.43;78.24;99026.94;4121293;28;20217;-53
2022/07/21 07:30:43;;;;;;;8.43;7.72;;;;;;;21.60;76.42;99025.19;4122356;28;20229;-55
2022/07/21 07:32:46;;;;;;;9.93;9.00;;;;;;;21.89;76.36;99022.09;4123384;28;20217;-53
2022/07/21 07:34:48;;;;;;;9.02;8.15;;;;;;;22.24;75.64;99021.31;4121098;28;20669;-52
2022/07/21 07:36:50;;;;;;;9.32;8.60;;;;;;;22.03;74.36;99011.78;4125857;28;20201;-55
2022/07/21 07:38:52;;;;;;;9.43;8.55;;;;;;;22.27;75.98;99026.28;4127093;28;20237;-54
2022/07/21 07:40:55;;;;;;;8.32;7.72;;;;;;;22.33;73.55;99025.03;4119566;28;20225;-53
2022/07/21 07:42:57;;;;;;;10.75;9.13;;;;;;;22.61;74.23;99034.97;4137340;28;20684;-54
2022/07/21 07:45:08;;;;;;;8.80;8.20;;;;;;;22.80;72.63;99033.69;4128142;28;20268;-53
2022/07/21 07:47:12;;;;;;;9.00;8.20;;;;;;;22.77;72.15;99027.91;4139588;28;20220;-54
2022/07/21 07:49:13;;;;;;;8.88;8.18;;;;;;;22.83;73.37;99037.81;4121269;28;20213;-52
2022/07/21 07:51:19;;;;;;;9.07;8.40;;;;;;;22.57;72.80;99039.56;4113885;28;20608;-53
2022/07/21 07:53:21;;;;;;;12.38;8.48;;;;;;;22.39;73.39;99040.50;4113545;28;20300;-55
2022/07/21 07:55:23;;;;;;;10.02;9.27;;;;;;;22.37;73.60;99042.78;4124285;28;20271;-54
2022/07/21 07:57:27;;;;;;;9.27;8.43;;;;;;;22.27;72.67;99048.56;4108898;28;20214;-55
2022/07/21 07:59:29;;;;;;;9.75;8.75;;;;;;;22.37;72.78;99051.16;4127555;28;20613;-54
2022/07/21 08:01:30;;;;;;;9.98;9.20;;;;;;;22.52;71.38;99051.63;4134458;28;20241;-53
2022/07/21 08:03:32;;;;;;;8.00;7.40;;;;;;;22.52;71.87;99053.63;4135436;28;20204;-55
2022/07/21 08:05:37;;;;;;;9.18;8.45;;;;;;;22.58;70.48;99052.38;4124762;28;20257;-54
2022/07/21 08:07:40;;;;;;;8.90;8.20;;;;;;;22.40;71.56;99044.94;4134692;28;20716;-52
2022/07/21 08:09:42;;;;;;;9.27;8.68;;;;;;;22.69;71.42;99037.00;4125577;28;20213;-52
2022/07/21 08:11:46;;;;;;;9.05;8.32;;;;;;;23.04;70.63;99044.53;4127448;28;20209;-54
2022/07/21 08:13:48;;;;;;;8.55;7.95;;;;;;;22.89;70.27;99047.69;4125102;28;20205;-55
2022/07/21 08:15:50;;;;;;;8.07;7.47;;;;;;;22.76;69.79;99054.97;4119941;28;20233;-54
2022/07/21 08:17:52;;;;;;;7.13;6.63;;;;;;;22.60;69.78;99055.66;4105742;28;20248;-54
2022/07/21 08:19:54;;;;;;;9.18;8.27;;;;;;;22.36;71.04;99052.28;4123811;28;20822;-54
2022/07/21 08:21:55;;;;;;;8.95;8.25;;;;;;;22.61;71.07;99051.72;4131065;28;20228;-53
2022/07/21 08:24:15;;;;;;;9.00;8.20;;;;;;;22.95;71.42;99052.84;4109059;28;20239;-53
2022/07/21 08:26:17;;;;;;;8.25;7.65;;;;;;;22.71;70.33;99038.34;4123449;28;20213;-53
2022/07/21 08:28:19;;;;;;;8.85;7.88;;;;;;;22.41;70.73;99046.59;4120852;28;20206;-53
2022/07/21 08:30:21;;;;;;;8.23;7.43;;;;;;;22.72;70.31;99033.59;4123095;28;20279;-53
2022/07/21 08:32:30;;;;;;;7.80;7.30;;;;;;;23.05;69.41;99040.59;4123331;28;20244;-52
2022/07/21 08:34:32;;;;;;;6.90;6.32;;;;;;;23.54;67.67;99046.00;4111280;28;20336;-53
2022/07/21 08:36:34;;;;;;;8.40;7.68;;;;;;;23.73;67.02;99039.03;4124051;28;20209;-53
2022/07/21 08:38:36;;;;;;;6.40;5.93;;;;;;;24.02;65.68;99045.75;4126898;28;20849;-53
2022/07/21 08:40:43;;;;;;;6.53;6.03;;;;;;;23.57;65.28;99048.16;4140420;28;20220;-53
2022/07/21 08:42:46;;;;;;;5.68;5.28;;;;;;;23.83;64.58;99046.31;4140294;28;20197;-53
2022/07/21 08:44:48;;;;;;;5.85;5.45;;;;;;;23.65;65.02;99044.56;4124009;28;20280;-52
2022/07/21 08:46:50;;;;;;;6.13;5.63;;;;;;;24.26;64.88;99048.91;4126713;28;20209;-52
2022/07/21 08:48:52;;;;;;;8.13;5.95;;;;;;;24.54;65.11;99047.47;4120963;28;20600;-53
2022/07/21 08:50:56;;;;;;;5.70;5.30;;;;;;;24.88;64.24;99033.53;4124296;28;20229;-53
2022/07/21 08:52:58;;;;;;;5.55;5.05;;;;;;;25.18;61.89;99040.06;4141020;28;20236;-53
2022/07/21 08:55:02;;;;;;;4.88;4.47;;;;;;;25.48;61.91;99037.09;4125733;28;20272;-53
2022/07/21 08:57:03;;;;;;;4.63;4.22;;;;;;;25.57;58.78;99042.63;4131913;28;20280;-52
2022/07/21 08:59:10;;;;;;;11.52;3.50;;;;;;;25.56;57.80;99047.44;4139314;28;20201;-53
2022/07/21 09:01:12;;;;;;;3.58;3.28;;;;;;;25.54;57.55;99043.31;4145030;28;20756;-53
2022/07/21 09:03:22;;;;;;;3.83;3.45;;;;;;;25.27;58.37;99038.91;4122688;28;20198;-53
2022/07/21 09:05:24;;;;;;;3.42;3.10;;;;;;;25.41;57.63;99033.97;4121263;28;20641;-53
2022/07/21 09:07:26;;;;;;;3.35;2.70;;;;;;;25.51;56.31;99033.59;4137283;28;20213;-53
2022/07/21 09:09:29;;;;;;;4.55;2.63;;;;;;;25.48;57.13;99039.03;4108184;28;20199;-53
2022/07/21 09:11:32;;;;;;;4.00;3.70;;;;;;;25.57;56.36;99031.44;4125352;28;20409;-52
2022/07/21 09:13:34;;;;;;;3.83;3.50;;;;;;;25.60;57.26;99031.56;4136793;28;20208;-52
2022/07/21 09:15:36;;;;;;;3.22;2.83;;;;;;;25.51;57.33;99028.00;4110331;28;20697;-53
2022/07/21 09:17:38;;;;;;;3.65;3.35;;;;;;;25.13;57.90;99024.25;4125719;28;20288;-53
2022/07/21 09:20:00;;;;;;;2.50;2.30;;;;;;;25.08;57.10;99030.06;4132221;28;20289;-53
2022/07/21 09:22:04;;;;;;;3.47;3.17;;;;;;;25.00;57.85;99028.06;4126405;28;20473;-53
2022/07/21 09:24:12;;;;;;;4.50;4.15;;;;;;;25.32;58.70;99021.13;4132966;28;20676;-52
2022/07/21 09:26:15;;;;;;;5.18;3.85;;;;;;;25.93;58.77;99035.44;4131080;28;20205;-53
2022/07/21 09:28:27;;;;;;;5.50;4.88;;;;;;;26.10;56.54;99040.97;4126855;28;20992;-53
2022/07/21 09:31:06;;;;;;;4.45;4.15;;;;;;;26.45;56.89;99031.16;4121232;28;20273;-53